ARKANSAS RIVER NAVIGATION REPORT
  LITTLE ROCK DISTRICT - U.S. ARMY CORPS OF ENGINEERS
  GENERATED: 26 JAN 2020 @ 14:35
 
  NOTE: These data are not guaranteed to be valid or correct.
        RELEASES AND FLOWS ARE IN THOUSANDS OF CFS
  _____________________________________________________________________________
 
                  25JAN     25JAN      25JAN           26JAN          26JAN
                  @1200     @2400     AVERAGE      LATEST OBSERVED    PRECIP.
                  HOURS     HOURS      FLOW         DATA AND TIME     (7A-7A)
  _____________________________________________________________________________
 
  LD13 HW-ELEV    390.32    390.57                391.15  @  13:00       .19
  LD13 TW-ELEV    380.35    378.88                378.25  @  13:00
  LD13 RELEASE     75.4      58.4      71.1        60.8   @  13:00
 
  OZA.L&D HW-ELEV 371.29    371.51                371.34  @  13:00       .29
  OZA.L&D TW-ELEV 349.40    347.72                346.38  @  13:00
  OZA.L&D RELEASE 122.5     122.8                 124.7   @   8:00
 
  DRD.L&D HW-ELEV 338.41    338.41                338.35  @  13:00       .09
  DRD.L&D TW-ELEV 299.56    296.99                295.41  @  13:00
  DRD.L&D RELEASE 118.8      92.3     117.7        92.5   @  13:00
 
  LD09 HW-ELEV    284.69    285.04                285.86  @  13:00       .05
  LD09 TW-ELEV    280.35    278.87                276.09  @  13:00
  LD09 RELEASE    122.9     117.2                  92.9   @  13:00
 
  LD08 HW-ELEV    267.04    266.27                264.18  @  13:00       .14
  LD08 TW-ELEV    266.43    265.74                263.80  @  13:00
  LD08 RELEASE    135.7     128.3     134.5       108.2   @  13:00
 
  LD07 HW-ELEV    248.04    248.63                247.99  @  13:00       .20
  LD07 TW-ELEV    237.74    237.44                236.70  @  13:00
  LD07 RELEASE    148.3     148.1     146.0       133.1   @  13:00
 
  LD06 HW-ELEV    230.70    230.83                230.84  @  13:00       .08
  LD06 TW-ELEV    224.85    224.57                223.91  @  13:00
  LD06 RELEASE    143.8     140.7     142.3       133.2   @  13:00
 
  LD05 HW-ELEV    211.87    211.95                211.54  @  13:00       .19
  LD05 TW-ELEV    206.22    205.59                205.42  @  13:00
  LD05 RELEASE    143.1     136.0     141.7       134.1   @  13:00
 
  LD04 HW-ELEV    194.93    195.01                194.74  @  13:00       .57
  LD04 TW-ELEV    191.76    191.15                191.04  @  13:00
  LD04 RELEASE    144.1     136.8     142.9       135.5   @  13:00
 
  LD03 HW-ELEV    180.50    180.16                180.16  @  13:00       .28
  LD03 TW-ELEV    179.87    179.36                179.10  @  13:00
  LD03 RELEASE    144.9     137.9     143.8       135.3   @  13:00
 
  L02 HW-ELEV     163.21    163.24                163.19  @  13:00       .02
 
  D02 HW-ELEV     162.43    162.41                162.49  @  13:00       .02
  D02 TW-ELEV     152.03    151.99                151.63  @  13:00
  D02 RELEASE     155.4     155.6                 155.7   @   8:00
 
  L01 TW-ELEV     154.30    154.34                154.37  @  13:00       .04
 
  MPLD HW-ELEV    153.89    153.93                153.97  @  13:00       .02	
  MPLD TW-ELEV    153.95    153.99                154.05  @  13:00
 
  WREC DIFF.         .41       .41                   .40
  CLARENDON FLOW   66.19     66.47     66.26       67.03  @  13:00
  HELENA STAGE     41.40     41.26                 41.05  @  13:00
  CAIRO STAGE      45.21     44.87                 44.51  @  13:00
  _____________________________________________________________________________